createdAt,value
2023-04-26T00:00:01.845Z,89.40
2023-04-26T00:05:04.452Z,89.50
2023-04-26T00:10:07.310Z,89.40
2023-04-26T00:15:09.795Z,89.40
2023-04-26T00:20:13.674Z,89.50
2023-04-26T00:25:15.768Z,89.50
2023-04-26T00:30:17.936Z,89.50
2023-04-26T00:35:20.396Z,89.50
2023-04-26T00:40:22.295Z,89.40
2023-04-26T00:45:24.489Z,89.20
2023-04-26T00:50:26.516Z,89.20
2023-04-26T00:55:28.683Z,89.20
2023-04-26T01:00:30.576Z,89.10
2023-04-26T01:05:32.617Z,88.90
2023-04-26T01:10:36.017Z,88.90
2023-04-26T01:15:38.450Z,89.00
2023-04-26T01:20:41.786Z,88.80
2023-04-26T01:25:43.854Z,88.80
2023-04-26T01:30:46.061Z,89.40
2023-04-26T01:35:48.004Z,88.80
2023-04-26T01:40:49.990Z,88.90
2023-04-26T01:45:51.989Z,88.90
2023-04-26T01:51:05.898Z,89.00
2023-04-26T01:56:08.671Z,89.10
2023-04-26T02:01:12.549Z,89.10
2023-04-26T02:06:14.525Z,89.10
2023-04-26T02:11:16.643Z,89.10
2023-04-26T02:16:18.703Z,89.20
2023-04-26T02:21:21.620Z,89.40
2023-04-26T02:26:23.651Z,89.40
2023-04-26T02:31:25.937Z,89.40
2023-04-26T02:36:27.857Z,89.50
2023-04-26T02:41:33.117Z,89.60
2023-04-26T02:46:35.184Z,89.50
2023-04-26T02:51:37.314Z,89.40
2023-04-26T02:56:39.290Z,89.30
2023-04-26T03:01:41.304Z,89.30
2023-04-26T03:06:43.434Z,89.20
2023-04-26T03:11:46.465Z,89.10
2023-04-26T03:16:49.926Z,89.20
2023-04-26T03:21:52.100Z,89.00
2023-04-26T03:26:54.146Z,88.90
2023-04-26T03:31:56.367Z,88.90
2023-04-26T03:36:58.660Z,88.90
2023-04-26T03:42:01.136Z,88.80
2023-04-26T03:47:05.224Z,89.00
2023-04-26T03:52:07.672Z,88.90
2023-04-26T03:57:10.551Z,88.90
2023-04-26T04:02:12.598Z,88.80
2023-04-26T04:07:16.618Z,88.80
2023-04-26T04:12:18.743Z,88.90
2023-04-26T04:17:20.882Z,88.90
2023-04-26T04:22:23.107Z,89.00
2023-04-26T04:27:25.562Z,88.90
2023-04-26T04:32:27.733Z,88.90
2023-04-26T04:37:29.901Z,89.00
2023-04-26T04:42:32.382Z,89.60
2023-04-26T04:47:37.860Z,89.10
2023-04-26T04:52:40.020Z,89.10
2023-04-26T04:57:46.412Z,89.00
2023-04-26T05:02:51.861Z,89.00
2023-04-26T05:07:54.315Z,89.10
2023-04-26T05:12:56.770Z,89.10
2023-04-26T05:17:59.698Z,89.40
2023-04-26T05:23:02.060Z,89.40
2023-04-26T05:28:04.283Z,89.80
2023-04-26T05:33:13.840Z,89.90
2023-04-26T05:38:22.877Z,90.00
2023-04-26T05:43:27.860Z,90.00
2023-04-26T05:48:30.469Z,90.10
2023-04-26T05:53:34.090Z,90.20
2023-04-26T05:58:37.222Z,90.30
2023-04-26T06:03:40.762Z,90.30
2023-04-26T06:08:44.329Z,90.40
2023-04-26T06:13:47.746Z,90.30
2023-04-26T06:18:50.248Z,90.40
2023-04-26T06:23:52.669Z,90.40
2023-04-26T06:28:56.494Z,90.50
2023-04-26T06:33:59.251Z,90.50
2023-04-26T06:39:01.506Z,90.70
2023-04-26T06:44:03.670Z,91.00
2023-04-26T06:49:06.948Z,90.80
2023-04-26T06:54:09.140Z,90.90
2023-04-26T06:59:11.168Z,90.90
2023-04-26T07:04:16.833Z,91.10
2023-04-26T07:09:18.810Z,91.10
2023-04-26T07:14:21.103Z,91.20
2023-04-26T07:19:23.442Z,91.30
2023-04-26T07:24:25.866Z,91.30
2023-04-26T07:29:27.897Z,91.30
2023-04-26T07:34:29.849Z,91.40
2023-04-26T07:39:32.002Z,91.40
2023-04-26T07:44:34.219Z,91.40
2023-04-26T07:49:36.531Z,91.40
2023-04-26T07:54:40.342Z,91.50
2023-04-26T07:59:42.445Z,91.60
2023-04-26T08:04:55.522Z,91.60
2023-04-26T08:09:57.754Z,91.70
2023-04-26T08:15:02.434Z,91.70
2023-04-26T08:20:09.877Z,91.70
2023-04-26T08:25:12.660Z,91.80
2023-04-26T08:30:14.937Z,91.70
2023-04-26T08:35:19.728Z,91.80
2023-04-26T08:40:27.198Z,91.80
2023-04-26T08:45:29.107Z,92.00
2023-04-26T08:50:33.653Z,92.00
2023-04-26T08:55:36.839Z,92.10
2023-04-26T09:00:39.372Z,92.20
2023-04-26T09:05:44.297Z,92.30
2023-04-26T09:10:46.685Z,92.30
2023-04-26T09:15:50.261Z,92.40
2023-04-26T09:21:07.136Z,92.50
2023-04-26T09:26:17.401Z,92.50
2023-04-26T09:31:40.402Z,92.50
2023-04-26T09:36:58.517Z,92.40
2023-04-26T09:42:02.015Z,92.50
2023-04-26T09:47:10.704Z,92.60
2023-04-26T09:52:12.838Z,92.70
2023-04-26T09:57:17.109Z,92.80
2023-04-26T10:02:24.536Z,92.90
2023-04-26T10:07:26.794Z,92.80
2023-04-26T10:12:29.353Z,92.70
2023-04-26T10:17:32.737Z,92.80
2023-04-26T10:22:44.810Z,92.70
2023-04-26T10:27:46.934Z,92.50
2023-04-26T10:32:58.227Z,92.40
2023-04-26T10:38:00.257Z,92.50
2023-04-26T10:43:11.843Z,92.40
2023-04-26T10:48:22.038Z,92.40
2023-04-26T10:53:25.900Z,92.30
2023-04-26T10:58:32.998Z,92.30
2023-04-26T11:03:35.506Z,92.30
2023-04-26T11:08:38.705Z,92.40
2023-04-26T11:13:42.263Z,92.30
2023-04-26T11:18:46.687Z,92.40
2023-04-26T11:23:55.285Z,92.30
2023-04-26T11:28:57.519Z,92.10
2023-04-26T11:34:05.852Z,92.10
2023-04-26T11:39:08.028Z,92.00
2023-04-26T11:44:12.470Z,92.00
2023-04-26T11:49:16.306Z,91.90
2023-04-26T11:54:35.869Z,92.00
2023-04-26T11:59:37.901Z,92.00
2023-04-26T12:04:41.473Z,92.10
2023-04-26T12:09:43.960Z,91.90
2023-04-26T12:14:47.760Z,91.80
2023-04-26T12:19:50.743Z,91.80
2023-04-26T12:25:05.434Z,91.70
2023-04-26T12:30:08.905Z,91.60
2023-04-26T12:35:10.973Z,91.60
2023-04-26T12:40:13.540Z,91.40
2023-04-26T12:45:16.080Z,91.20
2023-04-26T12:50:18.838Z,91.20
2023-04-26T12:55:21.344Z,91.00
2023-04-26T13:00:23.479Z,91.00
2023-04-26T13:05:25.733Z,90.90
2023-04-26T13:10:28.172Z,91.20
2023-04-26T13:15:30.395Z,90.90
2023-04-26T13:20:32.612Z,90.80
2023-04-26T13:25:34.640Z,90.90
2023-04-26T13:30:36.657Z,90.90
2023-04-26T13:35:38.652Z,90.90
2023-04-26T13:40:40.825Z,90.80
2023-04-26T13:45:43.238Z,90.70
2023-04-26T13:50:45.208Z,90.70
2023-04-26T13:55:47.159Z,90.70
2023-04-26T14:00:49.138Z,90.50
2023-04-26T14:05:51.291Z,90.30
2023-04-26T14:10:53.682Z,90.20
2023-04-26T14:15:57.392Z,90.10
2023-04-26T14:20:59.435Z,90.10
2023-04-26T14:26:01.744Z,90.10
2023-04-26T14:31:03.935Z,90.00
2023-04-26T14:36:06.308Z,90.00
2023-04-26T14:41:08.296Z,90.10
2023-04-26T14:46:10.318Z,90.10
2023-04-26T14:51:12.395Z,90.00
2023-04-26T14:56:14.402Z,90.00
2023-04-26T15:01:16.519Z,90.00
2023-04-26T15:06:18.747Z,90.00
2023-04-26T15:11:21.142Z,89.80
2023-04-26T15:16:23.384Z,89.80
2023-04-26T15:21:25.392Z,89.50
2023-04-26T15:26:30.885Z,89.50
2023-04-26T15:31:34.181Z,89.40
2023-04-26T15:36:36.552Z,89.40
2023-04-26T15:41:39.114Z,89.10
2023-04-26T15:46:41.238Z,89.10
2023-04-26T15:51:43.811Z,89.20
2023-04-26T15:56:48.975Z,89.50
2023-04-26T16:01:51.173Z,89.20
2023-04-26T16:06:53.279Z,89.10
2023-04-26T16:11:55.364Z,88.70
2023-04-26T16:16:58.828Z,88.30
2023-04-26T16:22:00.979Z,88.00
2023-04-26T16:27:02.952Z,87.50
2023-04-26T16:32:04.932Z,87.30
2023-04-26T16:37:07.536Z,87.30
2023-04-26T16:42:09.600Z,87.20
2023-04-26T16:47:11.664Z,87.20
2023-04-26T16:52:13.691Z,87.00
2023-04-26T16:57:15.626Z,86.90
2023-04-26T17:02:17.734Z,86.80
2023-04-26T17:07:19.784Z,87.40
2023-04-26T17:12:22.029Z,86.80
2023-04-26T17:17:23.921Z,86.60
2023-04-26T17:22:25.732Z,86.60
2023-04-26T17:27:27.642Z,86.70
2023-04-26T17:32:29.873Z,86.70
2023-04-26T17:37:31.718Z,86.50
2023-04-26T17:42:33.872Z,86.40
2023-04-26T17:47:35.732Z,86.40
2023-04-26T17:52:38.412Z,86.30
2023-04-26T17:57:40.942Z,86.30
2023-04-26T18:02:43.901Z,86.40
2023-04-26T18:07:46.106Z,86.30
2023-04-26T18:12:48.035Z,86.40
2023-04-26T18:17:49.985Z,86.30
2023-04-26T18:22:51.906Z,86.30
2023-04-26T18:27:53.970Z,86.10
2023-04-26T18:32:56.151Z,86.00
2023-04-26T18:37:58.147Z,86.00
2023-04-26T18:43:00.022Z,86.00
2023-04-26T18:48:01.961Z,85.90
2023-04-26T18:53:03.780Z,86.00
2023-04-26T18:58:05.796Z,85.90
2023-04-26T19:03:07.766Z,85.90
2023-04-26T19:08:09.962Z,85.80
2023-04-26T19:13:11.848Z,85.80
2023-04-26T19:18:13.892Z,85.70
2023-04-26T19:23:15.796Z,85.80
2023-04-26T19:28:20.025Z,85.80
2023-04-26T19:33:26.652Z,85.80
2023-04-26T19:38:44.809Z,85.90
2023-04-26T19:43:47.582Z,85.90
2023-04-26T19:48:49.389Z,85.90
2023-04-26T19:53:51.349Z,86.00
2023-04-26T19:58:53.205Z,86.00
2023-04-26T20:03:55.164Z,85.90
2023-04-26T20:08:57.074Z,86.00
2023-04-26T20:13:58.989Z,86.00
2023-04-26T20:19:01.377Z,86.00
2023-04-26T20:24:03.274Z,86.10
2023-04-26T20:29:05.558Z,86.00
2023-04-26T20:34:07.563Z,86.00
2023-04-26T20:39:12.053Z,85.90
2023-04-26T20:44:13.989Z,86.00
2023-04-26T20:49:15.820Z,86.00
2023-04-26T20:54:17.628Z,85.90
2023-04-26T20:59:19.427Z,86.00
2023-04-26T21:04:22.151Z,85.80
2023-04-26T21:09:24.154Z,85.90
2023-04-26T21:14:26.238Z,85.80
2023-04-26T21:19:28.126Z,85.90
2023-04-26T21:24:30.023Z,85.80
2023-04-26T21:29:34.606Z,85.70
2023-04-26T21:34:37.276Z,85.60
2023-04-26T21:39:39.149Z,85.60
2023-04-26T21:44:41.311Z,85.70
2023-04-26T21:49:43.094Z,85.70
2023-04-26T21:54:44.970Z,85.70
2023-04-26T21:59:46.757Z,85.70
2023-04-26T22:04:48.768Z,85.70
2023-04-26T22:09:50.632Z,85.70
2023-04-26T22:14:52.452Z,85.70
2023-04-26T22:19:55.595Z,85.80
2023-04-26T22:24:57.397Z,85.70
2023-04-26T22:30:04.228Z,85.80
2023-04-26T22:35:11.674Z,85.80
2023-04-26T22:40:16.883Z,85.80
2023-04-26T22:45:18.938Z,85.80
2023-04-26T22:50:20.905Z,85.90
2023-04-26T22:55:22.947Z,85.90
2023-04-26T23:00:25.908Z,85.90
2023-04-26T23:05:28.018Z,86.10
2023-04-26T23:10:30.014Z,86.10
2023-04-26T23:15:32.061Z,86.10
2023-04-26T23:20:34.058Z,86.00
2023-04-26T23:25:36.226Z,86.00
2023-04-26T23:30:38.157Z,86.00
2023-04-26T23:35:43.289Z,86.20
2023-04-26T23:40:45.284Z,86.20
2023-04-26T23:45:47.431Z,86.30
2023-04-26T23:50:49.939Z,86.20
2023-04-26T23:55:51.961Z,86.20
